Time;durP1;ratioP1;P1;durP2;ratioP2;P2;SDS_P1;SDS_P2;PMS_P1;PMS_P2;Temp;Humidity;BMP_temperature;BMP_pressure;BME280_temperature;BME280_humidity;BME280_pressure;Samples;Min_cycle;Max_cycle;Signal;HPM_P1;HPM_P2
2021/08/26 00:00:47;;;;;;;8.30;6.10;;;19.20;64.90;;;;;;5057608;28;21164;-44
2021/08/26 00:06:00;;;;;;;9.83;6.20;;;19.20;64.90;;;;;;5058212;28;20865;-44
2021/08/26 00:08:27;;;;;;;8.87;6.70;;;19.10;65.20;;;;;;5062570;28;20901;-44
2021/08/26 00:10:54;;;;;;;8.93;6.60;;;19.10;65.20;;;;;;5068812;28;20513;-44
2021/08/26 00:13:22;;;;;;;12.30;6.70;;;19.10;65.40;;;;;;5069971;28;20972;-44
2021/08/26 00:15:50;;;;;;;8.93;7.20;;;19.00;65.60;;;;;;5052788;28;20455;-44
2021/08/26 00:18:22;;;;;;;9.37;6.37;;;19.00;66.10;;;;;;5065383;28;21027;-44
2021/08/26 00:20:52;;;;;;;6.67;5.93;;;19.00;66.30;;;;;;5068244;28;21047;-44
2021/08/26 00:23:21;;;;;;;8.20;5.90;;;18.90;66.50;;;;;;5070025;28;20453;-44
2021/08/26 00:25:48;;;;;;;7.67;6.37;;;18.90;66.60;;;;;;5062796;28;20457;-44
2021/08/26 00:28:15;;;;;;;9.60;6.70;;;18.90;66.80;;;;;;5062168;28;20485;-44
2021/08/26 00:30:42;;;;;;;6.40;5.80;;;18.90;66.80;;;;;;5071844;28;20460;-44
2021/08/26 00:33:09;;;;;;;11.80;8.10;;;18.90;67.00;;;;;;5081005;28;20449;-44
2021/08/26 00:35:35;;;;;;;9.03;7.57;;;18.90;67.20;;;;;;5075320;28;20746;-44
2021/08/26 00:38:02;;;;;;;13.10;9.03;;;18.80;67.40;;;;;;5069875;28;20450;-44
2021/08/26 00:40:29;;;;;;;13.70;8.70;;;18.80;67.60;;;;;;5069312;28;20481;-44
2021/08/26 00:43:00;;;;;;;14.60;9.60;;;18.90;67.80;;;;;;5058791;28;20456;-44
2021/08/26 00:45:30;;;;;;;14.40;10.43;;;18.80;67.70;;;;;;5071097;28;20518;-44
2021/08/26 00:47:57;;;;;;;12.17;9.03;;;18.80;67.90;;;;;;5045854;28;20489;-44
2021/08/26 00:50:24;;;;;;;15.27;10.57;;;18.80;67.80;;;;;;5063074;28;20459;-44
2021/08/26 00:52:53;;;;;;;14.50;10.90;;;18.80;68.00;;;;;;5068876;28;20999;-44
2021/08/26 00:55:20;;;;;;;14.97;11.30;;;18.80;68.10;;;;;;5072196;28;20883;-44
2021/08/26 00:57:50;;;;;;;17.73;11.00;;;18.70;68.20;;;;;;5069550;28;20453;-44
2021/08/26 01:00:17;;;;;;;16.63;12.63;;;18.70;68.40;;;;;;5065768;28;20541;-44
2021/08/26 01:03:12;;;;;;;17.47;11.40;;;18.70;68.50;;;;;;5069890;28;20504;-44
2021/08/26 01:05:58;;;;;;;15.00;10.80;;;18.70;68.60;;;;;;5073016;28;20858;-44
2021/08/26 01:08:33;;;;;;;15.00;10.53;;;18.70;68.70;;;;;;5072837;28;20480;-44
2021/08/26 01:11:03;;;;;;;14.97;10.70;;;18.60;68.80;;;;;;5081231;28;20453;-44
2021/08/26 01:13:38;;;;;;;15.70;12.17;;;18.60;69.00;;;;;;5067988;28;20459;-44
2021/08/26 01:16:13;;;;;;;13.63;12.23;;;18.60;69.00;;;;;;5051536;28;20836;-44
2021/08/26 01:18:42;;;;;;;12.00;10.53;;;18.60;69.10;;;;;;5064916;28;20457;-44
2021/08/26 01:21:14;;;;;;;11.93;10.63;;;18.60;69.10;;;;;;5049606;28;20732;-44
2021/08/26 01:23:44;;;;;;;12.43;9.87;;;18.60;69.20;;;;;;5063007;28;20461;-44
2021/08/26 01:26:15;;;;;;;13.00;10.10;;;18.60;69.10;;;;;;5070771;28;20454;-44
2021/08/26 01:28:45;;;;;;;12.30;10.37;;;18.60;69.10;;;;;;5069034;28;20482;-44
2021/08/26 01:31:12;;;;;;;17.33;11.23;;;18.60;69.30;;;;;;5078801;28;20462;-44
2021/08/26 01:33:40;;;;;;;12.20;9.87;;;18.60;69.20;;;;;;5070439;28;20507;-44
2021/08/26 01:36:07;;;;;;;11.80;9.27;;;18.60;69.30;;;;;;5067651;28;20456;-44
2021/08/26 01:38:34;;;;;;;13.73;10.03;;;18.60;69.30;;;;;;5071335;28;20535;-44
2021/08/26 01:41:01;;;;;;;13.67;10.23;;;18.60;69.20;;;;;;5072394;28;20449;-44
2021/08/26 01:43:28;;;;;;;10.90;9.80;;;18.60;69.50;;;;;;5064030;28;20958;-44
2021/08/26 01:45:57;;;;;;;12.10;10.33;;;18.60;69.30;;;;;;5063303;28;20531;-44
2021/08/26 01:48:24;;;;;;;12.00;10.20;;;18.60;69.50;;;;;;5060024;28;20879;-44
2021/08/26 01:50:51;;;;;;;12.00;9.70;;;18.60;69.40;;;;;;5065480;28;20449;-44
2021/08/26 01:53:18;;;;;;;11.37;9.53;;;18.60;69.40;;;;;;5072509;28;20461;-44
2021/08/26 01:55:46;;;;;;;10.13;9.13;;;18.60;69.30;;;;;;5071180;28;20545;-44
2021/08/26 01:58:15;;;;;;;10.20;9.00;;;18.50;69.60;;;;;;5056516;28;20459;-44
2021/08/26 02:00:43;;;;;;;14.80;10.53;;;18.50;69.30;;;;;;5062259;28;20458;-44
2021/08/26 02:03:10;;;;;;;9.73;8.73;;;18.50;69.50;;;;;;5067972;28;20509;-44
2021/08/26 02:05:37;;;;;;;12.07;9.00;;;18.50;69.50;;;;;;5059761;28;20467;-45
2021/08/26 02:08:04;;;;;;;8.87;7.97;;;18.40;69.60;;;;;;5069724;28;20544;-44
2021/08/26 02:10:31;;;;;;;9.23;8.10;;;18.40;69.70;;;;;;5064702;28;20496;-44
2021/08/26 02:12:58;;;;;;;10.73;9.63;;;18.50;69.60;;;;;;5068508;28;20453;-44
2021/08/26 02:15:26;;;;;;;12.27;10.10;;;18.50;69.60;;;;;;5073484;28;20474;-44
2021/08/26 02:17:55;;;;;;;11.67;10.47;;;18.50;69.50;;;;;;5072794;28;20449;-44
2021/08/26 02:20:23;;;;;;;12.77;10.50;;;18.50;69.50;;;;;;5064624;28;20465;-44
2021/08/26 02:22:50;;;;;;;10.80;9.23;;;18.50;69.60;;;;;;5057362;28;20464;-44
2021/08/26 02:25:17;;;;;;;11.33;9.80;;;18.50;69.60;;;;;;5057948;28;20463;-47
2021/08/26 02:27:44;;;;;;;11.73;9.10;;;18.50;69.80;;;;;;5050727;28;21012;-48
2021/08/26 02:30:11;;;;;;;9.13;8.00;;;18.50;69.80;;;;;;5070711;28;20478;-48
2021/08/26 02:32:38;;;;;;;11.00;8.43;;;18.50;70.10;;;;;;5081612;28;20448;-48
2021/08/26 02:35:06;;;;;;;11.77;9.30;;;18.50;70.00;;;;;;5061474;28;20534;-48
2021/08/26 02:37:32;;;;;;;11.07;9.27;;;18.50;70.00;;;;;;5069535;28;20465;-48
2021/08/26 02:40:00;;;;;;;11.60;9.83;;;18.50;70.00;;;;;;5067604;28;20828;-48
2021/08/26 02:42:29;;;;;;;10.37;9.37;;;18.50;70.20;;;;;;5038916;28;20454;-48
2021/08/26 02:44:56;;;;;;;11.50;9.10;;;18.50;70.10;;;;;;5043389;28;20471;-48
2021/08/26 02:47:23;;;;;;;10.27;9.27;;;18.50;70.00;;;;;;5054186;28;20938;-48
2021/08/26 02:49:50;;;;;;;12.10;8.43;;;18.50;70.20;;;;;;5071846;28;20857;-48
2021/08/26 02:52:16;;;;;;;10.50;9.40;;;18.50;70.20;;;;;;5054898;28;20468;-48
2021/08/26 02:54:43;;;;;;;9.43;8.40;;;18.50;70.30;;;;;;5056212;28;21039;-48
2021/08/26 02:57:10;;;;;;;11.37;9.93;;;18.50;70.40;;;;;;5064916;28;20453;-48
2021/08/26 02:59:39;;;;;;;16.20;10.73;;;18.50;70.40;;;;;;5078325;28;20454;-48
2021/08/26 03:02:06;;;;;;;10.57;9.30;;;18.50;70.30;;;;;;5079192;28;20466;-48
2021/08/26 03:04:33;;;;;;;11.83;9.30;;;18.40;70.40;;;;;;5046747;28;20548;-48
2021/08/26 03:07:00;;;;;;;9.40;8.40;;;18.50;70.60;;;;;;5070095;28;20454;-48
2021/08/26 03:09:26;;;;;;;11.03;8.60;;;18.50;70.60;;;;;;5068910;28;20899;-48
2021/08/26 03:11:53;;;;;;;11.17;9.10;;;18.50;70.80;;;;;;5051936;28;20456;-48
2021/08/26 03:14:20;;;;;;;13.60;9.17;;;18.40;71.70;;;;;;5080477;28;20454;-48
2021/08/26 03:16:46;;;;;;;14.67;8.17;;;18.40;72.70;;;;;;5069019;28;20447;-48
2021/08/26 03:19:13;;;;;;;11.30;8.10;;;18.30;73.20;;;;;;5069396;28;20457;-48
2021/08/26 03:21:40;;;;;;;10.80;9.27;;;18.30;74.00;;;;;;5073236;28;20559;-48
2021/08/26 03:24:09;;;;;;;10.70;7.73;;;18.20;74.10;;;;;;5067534;28;20461;-48
2021/08/26 03:26:35;;;;;;;9.00;7.67;;;18.20;74.60;;;;;;5061531;28;20975;-48
2021/08/26 03:29:02;;;;;;;8.20;7.40;;;18.20;74.30;;;;;;5059999;28;20492;-48
2021/08/26 03:31:29;;;;;;;10.47;8.33;;;18.10;74.50;;;;;;5066899;28;20795;-48
2021/08/26 03:33:56;;;;;;;10.83;8.17;;;18.10;74.60;;;;;;5068761;28;20464;-47
2021/08/26 03:36:26;;;;;;;11.40;7.80;;;18.10;74.40;;;;;;5061484;28;20454;-47
2021/08/26 03:38:54;;;;;;;8.47;7.57;;;18.00;74.60;;;;;;5060654;28;20490;-47
2021/08/26 03:41:23;;;;;;;7.70;6.90;;;18.00;75.30;;;;;;5068650;28;20469;-47
2021/08/26 03:43:51;;;;;;;11.40;7.17;;;18.00;74.80;;;;;;5073312;28;20460;-48
2021/08/26 03:46:18;;;;;;;7.10;6.40;;;18.10;74.80;;;;;;5052231;28;20460;-48
2021/08/26 03:48:45;;;;;;;7.47;5.60;;;18.10;74.90;;;;;;5054578;28;20481;-48
2021/08/26 03:51:12;;;;;;;9.07;6.60;;;18.00;75.50;;;;;;5050396;28;20479;-48
2021/08/26 03:53:39;;;;;;;6.97;5.83;;;18.00;76.10;;;;;;5070436;28;20462;-47
2021/08/26 03:56:06;;;;;;;8.90;6.10;;;18.00;76.60;;;;;;5067208;28;21005;-47
2021/08/26 03:58:33;;;;;;;9.50;6.73;;;18.00;76.70;;;;;;5068296;28;20468;-48
2021/08/26 04:01:05;;;;;;;9.97;7.07;;;17.90;77.10;;;;;;5067905;28;20454;-47
2021/08/26 04:03:32;;;;;;;10.60;7.87;;;17.90;77.20;;;;;;5066750;28;20465;-47
2021/08/26 04:06:02;;;;;;;9.00;7.03;;;17.90;77.60;;;;;;5058007;28;20460;-47
2021/08/26 04:08:29;;;;;;;8.10;6.60;;;17.90;77.90;;;;;;5066148;28;20930;-47
2021/08/26 04:10:56;;;;;;;8.33;7.27;;;17.90;78.30;;;;;;5070415;28;20465;-47
2021/08/26 04:13:22;;;;;;;9.00;7.40;;;17.90;78.50;;;;;;5059820;28;20450;-47
2021/08/26 04:15:49;;;;;;;11.17;8.10;;;17.90;78.80;;;;;;5057567;28;20454;-47
2021/08/26 04:18:17;;;;;;;15.27;9.00;;;17.90;79.00;;;;;;5071486;28;20464;-48
2021/08/26 04:20:43;;;;;;;11.83;8.10;;;17.90;78.90;;;;;;5064734;28;20480;-47
2021/08/26 04:23:12;;;;;;;10.70;7.70;;;17.90;79.00;;;;;;5055341;28;20980;-48
2021/08/26 04:25:39;;;;;;;9.50;7.33;;;17.90;79.00;;;;;;5067812;28;20466;-48
2021/08/26 04:28:07;;;;;;;10.03;8.10;;;18.00;78.30;;;;;;5054572;28;20556;-48
2021/08/26 04:30:34;;;;;;;8.50;7.50;;;18.00;78.20;;;;;;5060509;28;20488;-47
2021/08/26 04:33:02;;;;;;;11.30;8.13;;;17.90;78.40;;;;;;5069491;28;20462;-47
2021/08/26 04:35:29;;;;;;;8.53;6.97;;;17.90;78.60;;;;;;5062365;28;20474;-48
2021/08/26 04:37:56;;;;;;;10.63;7.80;;;17.90;78.70;;;;;;5070350;28;21307;-47
2021/08/26 04:40:23;;;;;;;9.37;7.53;;;17.90;78.10;;;;;;5070242;28;20457;-47
2021/08/26 04:42:50;;;;;;;7.43;6.37;;;18.00;78.10;;;;;;5070876;28;20464;-48
2021/08/26 04:45:17;;;;;;;8.30;7.10;;;17.90;78.10;;;;;;5070170;28;20923;-48
2021/08/26 04:47:43;;;;;;;9.57;7.27;;;17.90;78.10;;;;;;5071905;28;20473;-48
2021/08/26 04:50:10;;;;;;;8.73;7.43;;;17.90;77.90;;;;;;5071101;28;20489;-47
2021/08/26 04:52:37;;;;;;;10.30;7.87;;;17.90;78.00;;;;;;5045303;28;20496;-48
2021/08/26 04:55:04;;;;;;;8.03;6.93;;;17.80;78.10;;;;;;5064568;28;20449;-47
2021/08/26 04:57:31;;;;;;;8.90;7.10;;;17.80;78.20;;;;;;5068437;28;20461;-47
2021/08/26 04:59:58;;;;;;;9.50;8.47;;;17.80;78.30;;;;;;5070614;28;20462;-48
2021/08/26 05:02:24;;;;;;;9.47;7.80;;;17.70;78.70;;;;;;5070427;28;20449;-48
2021/08/26 05:04:51;;;;;;;9.20;6.70;;;17.70;78.70;;;;;;5063551;28;20575;-47
2021/08/26 05:07:18;;;;;;;7.93;6.93;;;17.70;78.80;;;;;;5070110;28;20810;-48
2021/08/26 05:09:45;;;;;;;7.53;6.73;;;17.70;79.10;;;;;;5066394;28;20486;-48
2021/08/26 05:12:12;;;;;;;7.33;6.37;;;17.60;79.20;;;;;;5047696;28;20462;-47
2021/08/26 05:14:38;;;;;;;8.20;7.40;;;17.60;79.40;;;;;;5050511;28;20989;-47
2021/08/26 05:17:05;;;;;;;9.20;6.20;;;17.60;79.60;;;;;;5056252;28;20476;-47
2021/08/26 05:19:32;;;;;;;6.80;6.10;;;17.60;79.30;;;;;;5058556;28;21060;-47
2021/08/26 05:21:59;;;;;;;5.90;4.37;;;17.50;79.50;;;;;;5069762;28;20481;-48
2021/08/26 05:24:26;;;;;;;5.40;4.70;;;17.50;79.60;;;;;;5071617;28;20720;-47
2021/08/26 05:26:53;;;;;;;6.70;5.47;;;17.50;79.50;;;;;;5078619;28;20466;-47
2021/08/26 05:29:20;;;;;;;6.70;5.63;;;17.50;79.80;;;;;;5058165;28;20487;-47
2021/08/26 05:31:47;;;;;;;5.33;4.83;;;17.50;79.90;;;;;;5066526;28;20469;-47
2021/08/26 05:34:16;;;;;;;8.00;4.80;;;17.50;80.00;;;;;;5069221;28;20913;-47
2021/08/26 05:36:43;;;;;;;6.00;5.17;;;17.50;80.20;;;;;;5058663;28;20453;-47
2021/08/26 05:39:09;;;;;;;5.97;4.97;;;17.40;80.10;;;;;;5065430;28;20473;-47
2021/08/26 05:41:44;;;;;;;7.00;4.87;;;17.40;80.30;;;;;;5040648;28;20462;-47
2021/08/26 05:44:15;;;;;;;5.20;4.70;;;17.40;80.30;;;;;;5071390;28;20465;-48
2021/08/26 05:46:43;;;;;;;6.43;4.40;;;17.40;80.60;;;;;;5061359;28;20473;-47
2021/08/26 05:49:10;;;;;;;4.97;4.40;;;17.50;80.50;;;;;;5071745;28;20481;-47
2021/08/26 05:51:36;;;;;;;5.03;4.40;;;17.50;80.60;;;;;;5080291;28;20462;-48
2021/08/26 05:54:03;;;;;;;6.20;5.40;;;17.50;80.60;;;;;;5058905;28;20460;-47
2021/08/26 05:56:31;;;;;;;6.67;5.73;;;17.50;80.70;;;;;;5072822;28;20462;-47
2021/08/26 05:58:57;;;;;;;5.23;4.57;;;17.50;80.60;;;;;;5071224;28;20821;-47
2021/08/26 06:01:28;;;;;;;5.47;4.50;;;17.60;80.70;;;;;;5069057;28;20900;-47
2021/08/26 06:03:57;;;;;;;7.23;4.60;;;17.60;80.70;;;;;;5053611;28;20442;-47
2021/08/26 06:06:23;;;;;;;4.87;3.90;;;17.60;80.80;;;;;;5061410;28;20459;-47
2021/08/26 06:08:50;;;;;;;3.80;3.37;;;17.60;81.10;;;;;;5086704;28;20452;-48
2021/08/26 06:11:17;;;;;;;4.10;2.87;;;17.60;81.20;;;;;;5053390;28;20837;-48
2021/08/26 06:13:44;;;;;;;3.70;2.93;;;17.70;81.00;;;;;;5049720;28;20454;-47
2021/08/26 06:16:11;;;;;;;3.50;2.93;;;17.70;80.90;;;;;;5074699;28;20441;-47
2021/08/26 06:18:38;;;;;;;4.50;2.40;;;17.70;80.90;;;;;;5070661;28;20890;-48
2021/08/26 06:21:05;;;;;;;2.27;2.07;;;17.70;80.70;;;;;;5067020;28;20487;-48
2021/08/26 06:23:32;;;;;;;3.10;2.47;;;17.70;79.60;;;;;;5067846;28;20466;-47
2021/08/26 06:25:59;;;;;;;1.47;1.37;;;17.70;79.40;;;;;;5063965;28;20458;-48
2021/08/26 06:28:25;;;;;;;1.20;1.10;;;17.60;78.50;;;;;;5058852;28;20501;-47
2021/08/26 06:30:52;;;;;;;2.50;1.13;;;17.60;77.10;;;;;;5058607;28;20489;-48
2021/08/26 06:33:21;;;;;;;1.60;1.50;;;17.60;77.30;;;;;;5069227;28;20450;-48
2021/08/26 06:35:48;;;;;;;1.30;0.90;;;17.60;76.40;;;;;;5058417;28;20458;-47
2021/08/26 06:38:15;;;;;;;1.20;1.07;;;17.60;75.90;;;;;;5060606;28;20458;-47
2021/08/26 06:40:41;;;;;;;1.37;1.20;;;17.60;76.10;;;;;;5064647;28;20472;-47
2021/08/26 06:43:08;;;;;;;1.70;1.10;;;17.70;76.00;;;;;;5071936;28;20461;-48
2021/08/26 06:45:35;;;;;;;1.80;1.40;;;17.70;75.80;;;;;;5051323;28;20510;-47
2021/08/26 06:48:02;;;;;;;1.93;1.60;;;17.80;75.70;;;;;;5058038;28;20465;-47
2021/08/26 06:50:29;;;;;;;1.77;1.67;;;17.80;75.30;;;;;;5067537;28;20484;-47
2021/08/26 06:52:55;;;;;;;1.73;1.33;;;17.70;75.20;;;;;;5069120;28;20441;-47
2021/08/26 06:55:22;;;;;;;4.07;2.67;;;17.70;74.50;;;;;;5055316;28;20480;-47
2021/08/26 06:57:49;;;;;;;7.07;2.63;;;17.80;71.60;;;;;;5050449;28;20443;-47
2021/08/26 07:00:16;;;;;;;4.30;2.90;;;17.80;70.10;;;;;;5067312;28;20492;-47
2021/08/26 07:02:43;;;;;;;4.13;2.40;;;17.80;70.30;;;;;;5071533;28;20461;-47
2021/08/26 07:05:10;;;;;;;4.43;2.97;;;17.80;70.10;;;;;;5058873;28;21036;-47
2021/08/26 07:07:39;;;;;;;4.10;2.33;;;17.80;70.80;;;;;;5071048;28;20445;-47
2021/08/26 07:10:06;;;;;;;8.27;2.60;;;17.70;71.10;;;;;;5070505;28;20996;-47
2021/08/26 07:12:33;;;;;;;5.27;3.40;;;17.80;69.50;;;;;;5069974;28;20449;-47
2021/08/26 07:15:00;;;;;;;7.77;3.60;;;17.80;68.00;;;;;;5065489;28;20445;-47
2021/08/26 07:17:27;;;;;;;5.93;3.17;;;17.80;68.40;;;;;;5051356;28;20549;-47
2021/08/26 07:19:54;;;;;;;4.07;2.90;;;17.80;66.90;;;;;;5070928;28;20466;-47
2021/08/26 07:22:21;;;;;;;5.30;3.10;;;17.80;66.80;;;;;;5054202;28;20560;-47
2021/08/26 07:24:47;;;;;;;5.73;3.43;;;17.80;67.10;;;;;;5067147;28;20461;-47
2021/08/26 07:27:14;;;;;;;3.37;3.07;;;17.80;67.70;;;;;;5069381;28;20468;-47
2021/08/26 07:29:41;;;;;;;4.93;3.60;;;17.80;67.40;;;;;;5065848;28;20478;-47
2021/08/26 07:32:08;;;;;;;5.27;3.00;;;17.80;67.80;;;;;;5075319;28;20461;-47
2021/08/26 07:34:37;;;;;;;5.63;3.73;;;17.80;67.10;;;;;;5057754;28;20806;-47
2021/08/26 07:37:04;;;;;;;6.73;3.70;;;17.90;66.90;;;;;;5065177;28;20483;-47
2021/08/26 07:39:31;;;;;;;3.47;3.00;;;17.90;65.60;;;;;;5065572;28;20467;-47
2021/08/26 07:41:58;;;;;;;5.90;3.97;;;18.00;65.50;;;;;;5054524;28;20538;-47
2021/08/26 07:44:24;;;;;;;8.60;5.60;;;18.00;65.30;;;;;;5050901;28;20458;-47
2021/08/26 07:46:51;;;;;;;12.33;3.93;;;18.00;65.60;;;;;;5059861;28;20464;-47
2021/08/26 07:49:18;;;;;;;8.30;3.50;;;17.90;66.20;;;;;;5070396;28;20465;-47
2021/08/26 07:51:44;;;;;;;4.63;2.93;;;18.00;66.10;;;;;;5046623;28;20486;-47
2021/08/26 07:54:11;;;;;;;3.93;3.00;;;18.00;65.70;;;;;;5064322;28;20469;-47
2021/08/26 07:56:38;;;;;;;5.60;3.20;;;18.10;65.60;;;;;;5075932;28;20457;-47
2021/08/26 07:59:05;;;;;;;4.60;2.83;;;18.10;64.70;;;;;;5076830;28;20469;-47
2021/08/26 08:01:32;;;;;;;5.37;3.33;;;18.10;64.70;;;;;;5072746;28;20833;-47
2021/08/26 08:03:59;;;;;;;6.00;3.60;;;18.10;65.20;;;;;;5058231;28;20469;-47
2021/08/26 08:06:26;;;;;;;6.03;3.20;;;18.10;65.80;;;;;;5056694;28;20473;-47
2021/08/26 08:08:55;;;;;;;4.70;3.17;;;18.20;65.10;;;;;;5083188;28;20460;-48
2021/08/26 08:11:21;;;;;;;6.80;2.77;;;18.20;65.30;;;;;;5067434;28;20487;-47
2021/08/26 08:14:01;;;;;;;3.60;2.67;;;18.30;64.60;;;;;;5074523;28;20455;-47
2021/08/26 08:16:28;;;;;;;5.03;2.37;;;18.40;64.10;;;;;;5056978;28;20496;-47
2021/08/26 08:18:56;;;;;;;2.73;2.40;;;18.40;63.30;;;;;;5071408;28;20454;-47
2021/08/26 08:21:23;;;;;;;5.20;2.30;;;18.50;63.50;;;;;;5070063;28;20499;-47
2021/08/26 08:23:50;;;;;;;3.90;2.10;;;18.50;62.80;;;;;;5050259;28;20480;-47
2021/08/26 08:26:17;;;;;;;4.33;2.30;;;18.50;62.80;;;;;;5056454;28;20461;-47
2021/08/26 08:28:43;;;;;;;5.20;2.87;;;18.60;62.90;;;;;;5029448;28;20452;-47
2021/08/26 08:31:10;;;;;;;5.87;2.07;;;18.60;62.30;;;;;;5059447;28;20505;-47
2021/08/26 08:33:38;;;;;;;7.00;2.40;;;18.80;62.00;;;;;;5070570;28;20458;-47
2021/08/26 08:36:06;;;;;;;3.50;1.90;;;19.00;61.50;;;;;;5044443;28;20469;-47
2021/08/26 08:38:33;;;;;;;3.63;2.20;;;19.40;60.10;;;;;;5082690;28;20461;-47
2021/08/26 08:41:00;;;;;;;4.37;2.00;;;19.80;59.10;;;;;;5069590;28;21018;-47
2021/08/26 08:43:27;;;;;;;5.17;1.97;;;20.20;56.90;;;;;;5066510;28;20465;-47
2021/08/26 08:45:55;;;;;;;4.53;1.90;;;20.50;55.10;;;;;;5067049;28;20461;-48
2021/08/26 08:48:24;;;;;;;4.10;1.50;;;20.80;54.60;;;;;;5069785;28;20963;-47
2021/08/26 08:50:51;;;;;;;2.60;2.10;;;21.00;54.50;;;;;;5071352;28;20485;-48
2021/08/26 08:53:18;;;;;;;4.53;1.60;;;21.00;53.70;;;;;;5067639;28;20435;-48
2021/08/26 08:55:46;;;;;;;2.80;1.37;;;21.00;52.70;;;;;;5068408;28;20442;-47
2021/08/26 08:58:13;;;;;;;5.23;1.90;;;21.10;51.60;;;;;;5067012;28;20476;-47
2021/08/26 09:00:41;;;;;;;4.10;1.50;;;21.10;52.30;;;;;;5045762;28;20457;-48
2021/08/26 09:03:08;;;;;;;4.10;2.10;;;21.20;52.30;;;;;;5068582;28;20547;-48
2021/08/26 09:06:10;;;;;;;3.40;1.40;;;21.50;52.40;;;;;;5061207;28;20464;-48
2021/08/26 09:08:37;;;;;;;3.10;1.60;;;21.60;49.20;;;;;;5031386;28;20833;-48
2021/08/26 09:11:21;;;;;;;3.00;1.50;;;21.50;49.90;;;;;;5067218;28;20844;-48
2021/08/26 09:13:50;;;;;;;2.83;1.30;;;21.40;50.20;;;;;;5057526;28;20458;-48
2021/08/26 09:16:17;;;;;;;2.90;1.00;;;21.30;50.20;;;;;;5050103;28;20911;-48
2021/08/26 09:18:44;;;;;;;2.40;1.20;;;21.50;49.50;;;;;;5056966;28;20464;-48
2021/08/26 09:21:14;;;;;;;1.43;1.13;;;21.80;49.90;;;;;;5064404;28;21015;-48
2021/08/26 09:23:55;;;;;;;3.33;1.03;;;21.90;48.90;;;;;;5065302;28;20454;-48
2021/08/26 09:26:24;;;;;;;1.67;1.10;;;21.90;47.80;;;;;;5051427;28;20462;-48
2021/08/26 09:28:53;;;;;;;2.67;1.13;;;21.70;47.80;;;;;;5057861;28;20462;-48
2021/08/26 09:31:26;;;;;;;4.17;1.60;;;21.70;48.30;;;;;;5063652;28;20497;-48
2021/08/26 09:33:57;;;;;;;4.57;1.30;;;21.80;48.80;;;;;;5056195;28;20846;-48
2021/08/26 09:36:30;;;;;;;4.43;1.63;;;21.90;49.40;;;;;;5064396;28;20453;-48
2021/08/26 09:39:07;;;;;;;2.80;1.30;;;22.30;48.70;;;;;;5066441;28;20816;-48
2021/08/26 09:41:46;;;;;;;1.30;1.20;;;22.60;47.40;;;;;;5064910;28;20460;-48
2021/08/26 09:44:17;;;;;;;3.33;1.40;;;22.60;46.70;;;;;;5065386;28;20464;-48
2021/08/26 09:46:47;;;;;;;1.17;1.03;;;22.50;46.60;;;;;;5050146;28;20461;-48
2021/08/26 09:49:17;;;;;;;5.50;1.23;;;22.30;47.30;;;;;;5063496;28;20461;-48
2021/08/26 09:51:45;;;;;;;2.43;1.50;;;22.10;47.90;;;;;;5055620;28;20495;-48
2021/08/26 09:54:33;;;;;;;1.33;1.17;;;21.90;48.00;;;;;;5063814;28;20814;-48
2021/08/26 09:57:01;;;;;;;2.50;1.37;;;21.80;47.40;;;;;;5053539;28;20494;-48
2021/08/26 09:59:48;;;;;;;2.67;1.40;;;21.60;47.70;;;;;;5054676;28;20458;-47
2021/08/26 10:02:17;;;;;;;3.43;1.50;;;21.50;48.50;;;;;;5055953;28;20463;-48
2021/08/26 10:04:45;;;;;;;7.43;1.90;;;21.40;49.70;;;;;;5065057;28;20724;-48
2021/08/26 10:07:13;;;;;;;5.93;2.00;;;21.30;51.70;;;;;;5082219;28;20499;-48
2021/08/26 10:09:41;;;;;;;4.00;2.60;;;21.20;53.20;;;;;;5059743;28;20445;-48
2021/08/26 10:12:12;;;;;;;3.40;1.90;;;21.00;53.50;;;;;;5064923;28;20842;-48
2021/08/26 10:14:41;;;;;;;3.20;2.03;;;20.90;53.60;;;;;;5052853;28;20454;-48
2021/08/26 10:17:09;;;;;;;4.50;2.40;;;21.10;54.20;;;;;;5059518;28;20924;-48
2021/08/26 10:19:37;;;;;;;2.83;1.70;;;21.70;52.30;;;;;;5063344;28;20450;-48
2021/08/26 10:22:05;;;;;;;4.50;3.00;;;22.20;52.40;;;;;;5052440;28;20487;-48
2021/08/26 10:24:36;;;;;;;3.87;2.60;;;22.70;50.90;;;;;;5067969;28;20453;-48
2021/08/26 10:27:08;;;;;;;3.87;2.17;;;23.10;49.50;;;;;;5044061;28;20469;-47
2021/08/26 10:29:38;;;;;;;2.50;2.30;;;23.20;48.60;;;;;;5062067;28;20962;-48
2021/08/26 10:32:05;;;;;;;3.50;2.00;;;23.00;48.40;;;;;;5063758;28;20497;-48
2021/08/26 10:34:32;;;;;;;2.40;2.10;;;22.90;49.10;;;;;;5058821;28;20461;-48
2021/08/26 10:36:59;;;;;;;2.97;2.20;;;22.70;49.80;;;;;;5041557;28;20508;-48
2021/08/26 10:39:39;;;;;;;2.43;1.77;;;22.50;49.60;;;;;;5063200;28;20975;-48
2021/08/26 10:42:28;;;;;;;7.60;2.50;;;22.30;50.30;;;;;;5058175;28;21061;-48
2021/08/26 10:45:11;;;;;;;3.03;1.70;;;22.10;50.50;;;;;;5056732;28;20458;-48
2021/08/26 10:47:50;;;;;;;4.30;2.20;;;21.80;51.20;;;;;;5054387;28;20479;-48
2021/08/26 10:50:22;;;;;;;5.93;2.30;;;21.60;51.90;;;;;;5059166;28;20459;-47
2021/08/26 10:53:06;;;;;;;3.40;2.20;;;21.40;52.30;;;;;;5062951;28;20456;-48
2021/08/26 10:55:46;;;;;;;2.53;1.70;;;21.20;52.70;;;;;;5050573;28;20445;-48
2021/08/26 10:58:25;;;;;;;2.80;1.63;;;21.00;53.20;;;;;;5064192;28;20449;-48
2021/08/26 11:00:56;;;;;;;2.80;1.90;;;20.90;53.70;;;;;;5053532;28;20546;-48
2021/08/26 11:03:46;;;;;;;2.90;2.00;;;20.70;54.10;;;;;;5066753;28;20533;-48
2021/08/26 11:06:16;;;;;;;5.10;2.37;;;20.60;54.80;;;;;;5061726;28;20481;-48
2021/08/26 11:08:45;;;;;;;5.90;2.40;;;20.50;55.10;;;;;;5059749;28;20467;-48
2021/08/26 11:11:27;;;;;;;5.50;1.83;;;20.50;55.10;;;;;;5064606;28;20481;-48
2021/08/26 11:14:20;;;;;;;3.00;1.67;;;20.50;55.80;;;;;;5063893;28;20449;-48
2021/08/26 11:16:51;;;;;;;2.03;1.50;;;20.50;56.20;;;;;;5058946;28;20443;-48
2021/08/26 11:19:18;;;;;;;2.00;1.53;;;20.50;56.40;;;;;;5069919;28;20505;-48
2021/08/26 11:21:47;;;;;;;5.90;2.43;;;20.50;56.60;;;;;;5069511;28;20483;-48
2021/08/26 11:24:20;;;;;;;2.20;1.30;;;20.60;56.70;;;;;;5050967;28;20838;-48
2021/08/26 11:26:54;;;;;;;6.93;1.97;;;20.60;57.20;;;;;;5068377;28;20462;-47
2021/08/26 11:29:22;;;;;;;4.80;1.57;;;20.50;56.80;;;;;;5069055;28;20934;-48
2021/08/26 11:31:55;;;;;;;2.77;1.30;;;20.60;56.80;;;;;;5068207;28;20477;-47
2021/08/26 11:34:28;;;;;;;4.23;1.60;;;20.60;56.80;;;;;;5068164;28;20470;-47
2021/08/26 11:37:05;;;;;;;2.90;1.50;;;20.60;56.40;;;;;;5069932;28;20544;-48
2021/08/26 11:39:39;;;;;;;2.53;1.17;;;20.60;55.50;;;;;;5058295;28;20811;-48
2021/08/26 11:42:22;;;;;;;4.97;1.30;;;20.70;56.30;;;;;;5071338;28;20453;-48
2021/08/26 11:45:10;;;;;;;5.93;1.70;;;20.80;56.90;;;;;;5068167;28;20485;-48
2021/08/26 11:47:41;;;;;;;3.53;1.30;;;21.00;55.10;;;;;;5062268;28;20834;-48
2021/08/26 11:50:12;;;;;;;2.60;1.37;;;21.10;54.80;;;;;;5068862;28;20460;-48
2021/08/26 11:52:40;;;;;;;2.47;1.20;;;21.20;54.60;;;;;;5050782;28;20508;-48
2021/08/26 11:55:30;;;;;;;1.83;1.00;;;21.30;54.50;;;;;;5057031;28;20453;-47
2021/08/26 11:57:59;;;;;;;2.60;1.10;;;21.30;53.80;;;;;;5069652;28;20525;-48
2021/08/26 12:00:29;;;;;;;3.43;1.20;;;21.40;53.30;;;;;;5067062;28;20465;-48
2021/08/26 12:03:01;;;;;;;3.73;1.10;;;21.40;52.80;;;;;;5085028;28;20963;-47
2021/08/26 12:05:29;;;;;;;4.53;1.00;;;21.50;53.40;;;;;;5051439;28;20497;-48
2021/08/26 12:07:57;;;;;;;1.60;1.50;;;21.50;52.60;;;;;;5069378;28;20449;-48
2021/08/26 12:10:34;;;;;;;2.63;0.97;;;21.50;53.60;;;;;;5057282;28;20451;-48
2021/08/26 12:13:04;;;;;;;2.30;1.47;;;21.50;52.60;;;;;;5070446;28;20452;-47
2021/08/26 12:15:41;;;;;;;1.03;0.97;;;21.50;52.70;;;;;;5065686;28;20474;-48
2021/08/26 12:18:13;;;;;;;2.87;1.07;;;21.50;53.10;;;;;;5059597;28;20937;-48
2021/08/26 12:20:47;;;;;;;2.07;1.30;;;21.60;53.00;;;;;;5065780;28;20477;-47
2021/08/26 12:23:19;;;;;;;6.53;1.50;;;21.50;53.80;;;;;;5065973;28;20468;-48
2021/08/26 12:26:03;;;;;;;2.57;1.43;;;21.50;54.30;;;;;;5060598;28;20981;-48
2021/08/26 12:28:35;;;;;;;1.50;1.40;;;21.40;55.10;;;;;;5065290;28;20462;-48
2021/08/26 12:31:07;;;;;;;2.23;1.40;;;21.40;54.20;;;;;;5053244;28;20484;-48
2021/08/26 12:34:01;;;;;;;4.00;1.53;;;21.40;54.00;;;;;;5063045;28;21314;-47
2021/08/26 12:36:29;;;;;;;2.33;1.67;;;21.50;54.20;;;;;;5064596;28;20444;-48
2021/08/26 12:39:20;;;;;;;7.33;1.90;;;21.50;53.80;;;;;;5054061;28;20465;-48
2021/08/26 12:42:09;;;;;;;4.73;1.80;;;21.60;54.00;;;;;;5066573;28;20465;-48
2021/08/26 12:44:36;;;;;;;2.70;1.50;;;21.60;53.90;;;;;;5067108;28;20536;-48
2021/08/26 12:47:07;;;;;;;2.07;1.50;;;21.50;53.50;;;;;;5071646;28;20966;-48
2021/08/26 12:49:42;;;;;;;2.83;1.60;;;21.50;53.70;;;;;;5064416;28;20851;-48
2021/08/26 12:52:09;;;;;;;2.40;2.20;;;21.40;54.10;;;;;;5063030;28;20814;-48
2021/08/26 12:54:41;;;;;;;4.63;1.87;;;21.30;54.70;;;;;;5064951;28;20445;-47
2021/08/26 12:57:19;;;;;;;1.33;1.17;;;21.30;55.60;;;;;;5064447;28;20536;-48